sensor_id;sensor_type;location;lat;lon;timestamp;temperature;humidity
8372;DHT22;4223;48.724;8.982;2022-09-16T00:00:41;12.40;99.90
8372;DHT22;4223;48.724;8.982;2022-09-16T00:03:08;12.40;99.90
8372;DHT22;4223;48.724;8.982;2022-09-16T00:05:39;12.50;99.90
8372;DHT22;4223;48.724;8.982;2022-09-16T00:08:06;12.50;99.90
8372;DHT22;4223;48.724;8.982;2022-09-16T00:10:33;12.50;99.90
8372;DHT22;4223;48.724;8.982;2022-09-16T00:13:02;12.50;99.90
8372;DHT22;4223;48.724;8.982;2022-09-16T00:15:29;12.50;99.90
8372;DHT22;4223;48.724;8.982;2022-09-16T00:17:56;12.50;99.90
8372;DHT22;4223;48.724;8.982;2022-09-16T00:20:22;12.50;99.90
8372;DHT22;4223;48.724;8.982;2022-09-16T00:22:49;12.50;99.90
8372;DHT22;4223;48.724;8.982;2022-09-16T00:25:16;12.50;99.90
8372;DHT22;4223;48.724;8.982;2022-09-16T00:27:43;12.50;99.90
8372;DHT22;4223;48.724;8.982;2022-09-16T00:30:11;12.50;99.90
8372;DHT22;4223;48.724;8.982;2022-09-16T00:32:38;12.50;99.90
8372;DHT22;4223;48.724;8.982;2022-09-16T00:35:06;12.50;99.90
8372;DHT22;4223;48.724;8.982;2022-09-16T00:37:33;12.50;99.90
8372;DHT22;4223;48.724;8.982;2022-09-16T00:40:00;12.50;99.90
8372;DHT22;4223;48.724;8.982;2022-09-16T00:42:27;12.40;99.90
8372;DHT22;4223;48.724;8.982;2022-09-16T00:44:57;12.40;99.90
8372;DHT22;4223;48.724;8.982;2022-09-16T00:47:28;12.40;99.90
8372;DHT22;4223;48.724;8.982;2022-09-16T00:50:01;12.40;99.90
8372;DHT22;4223;48.724;8.982;2022-09-16T00:52:30;12.50;99.90
8372;DHT22;4223;48.724;8.982;2022-09-16T00:55:00;12.40;99.90
8372;DHT22;4223;48.724;8.982;2022-09-16T00:57:28;12.40;99.90
8372;DHT22;4223;48.724;8.982;2022-09-16T00:59:56;12.40;99.90
8372;DHT22;4223;48.724;8.982;2022-09-16T01:02:24;12.30;99.90
8372;DHT22;4223;48.724;8.982;2022-09-16T01:04:54;12.40;99.90
8372;DHT22;4223;48.724;8.982;2022-09-16T01:07:28;12.30;99.90
8372;DHT22;4223;48.724;8.982;2022-09-16T01:09:57;12.20;99.90
8372;DHT22;4223;48.724;8.982;2022-09-16T01:12:27;12.20;99.90
8372;DHT22;4223;48.724;8.982;2022-09-16T01:14:55;12.30;99.90
8372;DHT22;4223;48.724;8.982;2022-09-16T01:17:36;12.30;99.90
8372;DHT22;4223;48.724;8.982;2022-09-16T01:23:23;12.30;99.90
8372;DHT22;4223;48.724;8.982;2022-09-16T01:26:05;12.30;99.90
8372;DHT22;4223;48.724;8.982;2022-09-16T01:28:56;12.20;99.90
8372;DHT22;4223;48.724;8.982;2022-09-16T01:31:36;12.20;99.90
8372;DHT22;4223;48.724;8.982;2022-09-16T01:34:10;12.20;99.90
8372;DHT22;4223;48.724;8.982;2022-09-16T01:36:46;12.20;99.90
8372;DHT22;4223;48.724;8.982;2022-09-16T01:39:23;12.20;99.90
8372;DHT22;4223;48.724;8.982;2022-09-16T01:42:13;12.20;99.90
8372;DHT22;4223;48.724;8.982;2022-09-16T01:44:47;12.20;99.90
8372;DHT22;4223;48.724;8.982;2022-09-16T01:47:21;12.20;99.90
8372;DHT22;4223;48.724;8.982;2022-09-16T01:49:58;12.20;99.90
8372;DHT22;4223;48.724;8.982;2022-09-16T01:52:36;12.20;99.90
8372;DHT22;4223;48.724;8.982;2022-09-16T01:55:06;12.20;99.90
8372;DHT22;4223;48.724;8.982;2022-09-16T01:57:37;12.20;99.90
8372;DHT22;4223;48.724;8.982;2022-09-16T02:00:06;12.20;99.90
8372;DHT22;4223;48.724;8.982;2022-09-16T02:02:39;12.20;99.90
8372;DHT22;4223;48.724;8.982;2022-09-16T02:05:11;12.20;99.90
8372;DHT22;4223;48.724;8.982;2022-09-16T02:07:43;12.20;99.90
8372;DHT22;4223;48.724;8.982;2022-09-16T02:10:15;12.20;99.90
8372;DHT22;4223;48.724;8.982;2022-09-16T02:12:45;12.20;99.90
8372;DHT22;4223;48.724;8.982;2022-09-16T02:15:16;12.20;99.90
8372;DHT22;4223;48.724;8.982;2022-09-16T02:17:54;12.20;99.90
8372;DHT22;4223;48.724;8.982;2022-09-16T02:20:26;12.20;99.90
8372;DHT22;4223;48.724;8.982;2022-09-16T02:22:57;12.20;99.90
8372;DHT22;4223;48.724;8.982;2022-09-16T02:25:27;12.20;99.90
8372;DHT22;4223;48.724;8.982;2022-09-16T02:27:59;12.20;99.90
8372;DHT22;4223;48.724;8.982;2022-09-16T02:30:26;12.20;99.90
8372;DHT22;4223;48.724;8.982;2022-09-16T02:32:57;12.20;99.90
8372;DHT22;4223;48.724;8.982;2022-09-16T02:35:26;12.20;99.90
8372;DHT22;4223;48.724;8.982;2022-09-16T02:37:56;12.20;99.90
8372;DHT22;4223;48.724;8.982;2022-09-16T02:40:26;12.20;99.90
8372;DHT22;4223;48.724;8.982;2022-09-16T02:42:56;12.20;99.90
8372;DHT22;4223;48.724;8.982;2022-09-16T02:45:30;12.20;99.90
8372;DHT22;4223;48.724;8.982;2022-09-16T02:48:05;12.20;99.90
8372;DHT22;4223;48.724;8.982;2022-09-16T02:50:42;12.20;99.90
8372;DHT22;4223;48.724;8.982;2022-09-16T02:53:18;12.20;99.90
8372;DHT22;4223;48.724;8.982;2022-09-16T02:55:53;12.20;99.90
8372;DHT22;4223;48.724;8.982;2022-09-16T02:58:22;12.20;99.90
8372;DHT22;4223;48.724;8.982;2022-09-16T03:00:51;12.20;99.90
8372;DHT22;4223;48.724;8.982;2022-09-16T03:03:21;12.20;99.90
8372;DHT22;4223;48.724;8.982;2022-09-16T03:06:12;12.20;99.90
8372;DHT22;4223;48.724;8.982;2022-09-16T03:08:40;12.20;99.90
8372;DHT22;4223;48.724;8.982;2022-09-16T03:11:16;12.20;99.90
8372;DHT22;4223;48.724;8.982;2022-09-16T03:13:52;12.20;99.90
8372;DHT22;4223;48.724;8.982;2022-09-16T03:16:25;12.20;99.90
8372;DHT22;4223;48.724;8.982;2022-09-16T03:19:08;12.20;99.90
8372;DHT22;4223;48.724;8.982;2022-09-16T03:21:42;12.10;99.90
8372;DHT22;4223;48.724;8.982;2022-09-16T03:24:15;12.20;99.90
8372;DHT22;4223;48.724;8.982;2022-09-16T03:26:51;12.20;99.90
8372;DHT22;4223;48.724;8.982;2022-09-16T03:29:24;12.20;99.90
8372;DHT22;4223;48.724;8.982;2022-09-16T03:31:58;12.20;99.90
8372;DHT22;4223;48.724;8.982;2022-09-16T03:34:34;12.30;99.90
8372;DHT22;4223;48.724;8.982;2022-09-16T03:37:05;12.30;99.90
8372;DHT22;4223;48.724;8.982;2022-09-16T03:39:34;12.30;99.90
8372;DHT22;4223;48.724;8.982;2022-09-16T03:42:04;12.30;99.90
8372;DHT22;4223;48.724;8.982;2022-09-16T03:44:34;12.30;99.90
8372;DHT22;4223;48.724;8.982;2022-09-16T03:47:01;12.30;99.90
8372;DHT22;4223;48.724;8.982;2022-09-16T03:49:29;12.30;99.90
8372;DHT22;4223;48.724;8.982;2022-09-16T03:51:56;12.30;99.90
8372;DHT22;4223;48.724;8.982;2022-09-16T03:54:24;12.30;99.90
8372;DHT22;4223;48.724;8.982;2022-09-16T03:56:51;12.30;99.90
8372;DHT22;4223;48.724;8.982;2022-09-16T03:59:18;12.30;99.90
8372;DHT22;4223;48.724;8.982;2022-09-16T04:01:44;12.40;99.90
8372;DHT22;4223;48.724;8.982;2022-09-16T04:04:11;12.40;99.90
8372;DHT22;4223;48.724;8.982;2022-09-16T04:06:40;12.40;99.90
8372;DHT22;4223;48.724;8.982;2022-09-16T04:09:09;12.40;99.90
8372;DHT22;4223;48.724;8.982;2022-09-16T04:11:37;12.50;99.90
8372;DHT22;4223;48.724;8.982;2022-09-16T04:14:04;12.50;99.90
8372;DHT22;4223;48.724;8.982;2022-09-16T04:16:31;12.40;99.90
8372;DHT22;4223;48.724;8.982;2022-09-16T04:18:58;12.40;99.90
8372;DHT22;4223;48.724;8.982;2022-09-16T04:21:26;12.40;99.90
8372;DHT22;4223;48.724;8.982;2022-09-16T04:23:55;12.40;99.90
8372;DHT22;4223;48.724;8.982;2022-09-16T04:26:22;12.40;99.90
8372;DHT22;4223;48.724;8.982;2022-09-16T04:28:51;12.40;99.90
8372;DHT22;4223;48.724;8.982;2022-09-16T04:31:19;12.40;99.90
8372;DHT22;4223;48.724;8.982;2022-09-16T04:33:46;12.30;99.90
8372;DHT22;4223;48.724;8.982;2022-09-16T04:36:14;12.30;99.90
8372;DHT22;4223;48.724;8.982;2022-09-16T04:38:43;12.20;99.90
8372;DHT22;4223;48.724;8.982;2022-09-16T04:41:13;12.30;99.90
8372;DHT22;4223;48.724;8.982;2022-09-16T04:43:40;12.30;99.90
8372;DHT22;4223;48.724;8.982;2022-09-16T04:46:07;12.30;99.90
8372;DHT22;4223;48.724;8.982;2022-09-16T04:48:35;12.20;99.90
8372;DHT22;4223;48.724;8.982;2022-09-16T04:51:03;12.30;99.90
8372;DHT22;4223;48.724;8.982;2022-09-16T04:53:30;12.30;99.90
8372;DHT22;4223;48.724;8.982;2022-09-16T04:56:03;12.30;99.90
8372;DHT22;4223;48.724;8.982;2022-09-16T04:58:31;12.30;99.90
8372;DHT22;4223;48.724;8.982;2022-09-16T05:01:03;12.20;99.90
8372;DHT22;4223;48.724;8.982;2022-09-16T05:03:31;12.30;99.90
8372;DHT22;4223;48.724;8.982;2022-09-16T05:06:04;12.20;99.90
8372;DHT22;4223;48.724;8.982;2022-09-16T05:08:31;12.20;99.90
8372;DHT22;4223;48.724;8.982;2022-09-16T05:11:02;12.20;99.90
8372;DHT22;4223;48.724;8.982;2022-09-16T05:13:31;12.20;99.90
8372;DHT22;4223;48.724;8.982;2022-09-16T05:16:01;12.20;99.90
8372;DHT22;4223;48.724;8.982;2022-09-16T05:18:28;12.20;99.90
8372;DHT22;4223;48.724;8.982;2022-09-16T05:20:58;12.10;99.90
8372;DHT22;4223;48.724;8.982;2022-09-16T05:23:25;12.20;99.90
8372;DHT22;4223;48.724;8.982;2022-09-16T05:25:52;12.20;99.90
8372;DHT22;4223;48.724;8.982;2022-09-16T05:28:20;12.10;99.90
8372;DHT22;4223;48.724;8.982;2022-09-16T05:30:48;12.10;99.90
8372;DHT22;4223;48.724;8.982;2022-09-16T05:33:15;12.10;99.90
8372;DHT22;4223;48.724;8.982;2022-09-16T05:35:42;12.10;99.90
8372;DHT22;4223;48.724;8.982;2022-09-16T05:38:10;12.10;99.90
8372;DHT22;4223;48.724;8.982;2022-09-16T05:40:40;12.10;99.90
8372;DHT22;4223;48.724;8.982;2022-09-16T05:43:07;12.10;99.90
8372;DHT22;4223;48.724;8.982;2022-09-16T05:45:33;12.10;99.90
8372;DHT22;4223;48.724;8.982;2022-09-16T05:48:02;12.10;99.90
8372;DHT22;4223;48.724;8.982;2022-09-16T05:50:28;12.00;99.90
8372;DHT22;4223;48.724;8.982;2022-09-16T05:52:55;12.00;99.90
8372;DHT22;4223;48.724;8.982;2022-09-16T05:55:22;12.00;99.90
8372;DHT22;4223;48.724;8.982;2022-09-16T05:57:50;12.00;99.90
8372;DHT22;4223;48.724;8.982;2022-09-16T06:00:17;12.00;99.90
8372;DHT22;4223;48.724;8.982;2022-09-16T06:02:46;12.00;99.90
8372;DHT22;4223;48.724;8.982;2022-09-16T06:05:15;12.00;99.90
8372;DHT22;4223;48.724;8.982;2022-09-16T06:07:42;12.00;99.90
8372;DHT22;4223;48.724;8.982;2022-09-16T06:10:08;12.00;99.90
8372;DHT22;4223;48.724;8.982;2022-09-16T06:12:35;12.10;99.90
8372;DHT22;4223;48.724;8.982;2022-09-16T06:15:02;12.00;99.90
8372;DHT22;4223;48.724;8.982;2022-09-16T06:17:29;12.00;99.90
8372;DHT22;4223;48.724;8.982;2022-09-16T06:19:56;12.00;99.90
8372;DHT22;4223;48.724;8.982;2022-09-16T06:22:24;12.00;99.90
8372;DHT22;4223;48.724;8.982;2022-09-16T06:24:52;12.00;99.90
8372;DHT22;4223;48.724;8.982;2022-09-16T06:27:18;12.00;99.90
8372;DHT22;4223;48.724;8.982;2022-09-16T06:29:45;12.00;99.90
8372;DHT22;4223;48.724;8.982;2022-09-16T06:32:12;12.00;99.90
8372;DHT22;4223;48.724;8.982;2022-09-16T06:34:39;11.90;99.90
8372;DHT22;4223;48.724;8.982;2022-09-16T06:37:05;11.90;99.90
8372;DHT22;4223;48.724;8.982;2022-09-16T06:39:34;11.90;99.90
8372;DHT22;4223;48.724;8.982;2022-09-16T06:42:01;11.90;99.90
8372;DHT22;4223;48.724;8.982;2022-09-16T06:44:28;11.90;99.90
8372;DHT22;4223;48.724;8.982;2022-09-16T06:46:54;12.00;99.90
8372;DHT22;4223;48.724;8.982;2022-09-16T06:49:21;11.90;99.90
8372;DHT22;4223;48.724;8.982;2022-09-16T06:51:48;11.80;99.90
8372;DHT22;4223;48.724;8.982;2022-09-16T06:54:16;11.80;99.90
8372;DHT22;4223;48.724;8.982;2022-09-16T06:56:44;11.80;99.90
8372;DHT22;4223;48.724;8.982;2022-09-16T06:59:11;11.80;99.90
8372;DHT22;4223;48.724;8.982;2022-09-16T07:01:39;11.80;99.90
8372;DHT22;4223;48.724;8.982;2022-09-16T07:04:08;11.70;99.90
8372;DHT22;4223;48.724;8.982;2022-09-16T07:06:38;11.70;99.90
8372;DHT22;4223;48.724;8.982;2022-09-16T07:09:05;11.70;99.90
8372;DHT22;4223;48.724;8.982;2022-09-16T07:11:32;11.70;99.90
8372;DHT22;4223;48.724;8.982;2022-09-16T07:14:00;11.70;99.90
8372;DHT22;4223;48.724;8.982;2022-09-16T07:16:27;11.60;99.90
8372;DHT22;4223;48.724;8.982;2022-09-16T07:18:55;11.60;99.90
8372;DHT22;4223;48.724;8.982;2022-09-16T07:21:23;11.50;99.90
8372;DHT22;4223;48.724;8.982;2022-09-16T07:23:54;11.60;99.90
8372;DHT22;4223;48.724;8.982;2022-09-16T07:26:24;11.60;99.90
8372;DHT22;4223;48.724;8.982;2022-09-16T07:28:53;11.70;99.90
8372;DHT22;4223;48.724;8.982;2022-09-16T07:31:22;11.60;99.90
8372;DHT22;4223;48.724;8.982;2022-09-16T07:33:51;11.60;99.90
8372;DHT22;4223;48.724;8.982;2022-09-16T07:36:19;11.70;99.90
8372;DHT22;4223;48.724;8.982;2022-09-16T07:38:47;11.70;99.90
8372;DHT22;4223;48.724;8.982;2022-09-16T07:41:16;11.70;99.90
8372;DHT22;4223;48.724;8.982;2022-09-16T07:43:44;11.70;99.90
8372;DHT22;4223;48.724;8.982;2022-09-16T07:46:12;11.60;99.90
8372;DHT22;4223;48.724;8.982;2022-09-16T07:48:43;11.70;99.90
8372;DHT22;4223;48.724;8.982;2022-09-16T07:51:11;11.60;99.90
8372;DHT22;4223;48.724;8.982;2022-09-16T07:53:39;11.60;99.90
8372;DHT22;4223;48.724;8.982;2022-09-16T07:56:08;11.60;99.90
8372;DHT22;4223;48.724;8.982;2022-09-16T07:58:35;11.70;99.90
8372;DHT22;4223;48.724;8.982;2022-09-16T08:01:03;11.70;99.90
8372;DHT22;4223;48.724;8.982;2022-09-16T08:03:30;11.70;99.90
8372;DHT22;4223;48.724;8.982;2022-09-16T08:06:00;11.70;99.90
8372;DHT22;4223;48.724;8.982;2022-09-16T08:08:28;11.70;99.90
8372;DHT22;4223;48.724;8.982;2022-09-16T08:10:56;11.70;99.90
8372;DHT22;4223;48.724;8.982;2022-09-16T08:13:25;11.70;99.90
8372;DHT22;4223;48.724;8.982;2022-09-16T08:15:52;11.80;99.90
8372;DHT22;4223;48.724;8.982;2022-09-16T08:18:19;12.00;99.90
8372;DHT22;4223;48.724;8.982;2022-09-16T08:20:46;12.20;99.90
8372;DHT22;4223;48.724;8.982;2022-09-16T08:23:14;12.30;99.90
8372;DHT22;4223;48.724;8.982;2022-09-16T08:25:41;12.50;99.90
8372;DHT22;4223;48.724;8.982;2022-09-16T08:28:11;12.50;99.90
8372;DHT22;4223;48.724;8.982;2022-09-16T08:30:38;12.50;99.90
8372;DHT22;4223;48.724;8.982;2022-09-16T08:33:05;12.50;99.90
8372;DHT22;4223;48.724;8.982;2022-09-16T08:35:32;12.40;99.90
8372;DHT22;4223;48.724;8.982;2022-09-16T08:37:59;12.40;99.90
8372;DHT22;4223;48.724;8.982;2022-09-16T08:40:34;12.30;99.90
8372;DHT22;4223;48.724;8.982;2022-09-16T08:43:07;12.30;99.90
8372;DHT22;4223;48.724;8.982;2022-09-16T08:45:43;12.20;99.90
8372;DHT22;4223;48.724;8.982;2022-09-16T08:48:23;12.20;99.90
8372;DHT22;4223;48.724;8.982;2022-09-16T08:50:53;12.30;99.90
8372;DHT22;4223;48.724;8.982;2022-09-16T08:53:34;12.40;99.90
8372;DHT22;4223;48.724;8.982;2022-09-16T08:56:09;12.40;99.90
8372;DHT22;4223;48.724;8.982;2022-09-16T08:58:38;12.40;99.90
8372;DHT22;4223;48.724;8.982;2022-09-16T09:01:14;12.40;99.90
8372;DHT22;4223;48.724;8.982;2022-09-16T09:03:46;12.50;99.90
8372;DHT22;4223;48.724;8.982;2022-09-16T09:06:22;12.60;99.90
8372;DHT22;4223;48.724;8.982;2022-09-16T09:08:58;12.50;99.90
8372;DHT22;4223;48.724;8.982;2022-09-16T09:11:33;12.50;99.90
8372;DHT22;4223;48.724;8.982;2022-09-16T09:16:56;12.60;99.90
8372;DHT22;4223;48.724;8.982;2022-09-16T09:19:38;12.60;99.90
8372;DHT22;4223;48.724;8.982;2022-09-16T09:22:16;12.60;99.90
8372;DHT22;4223;48.724;8.982;2022-09-16T09:24:55;12.60;99.90
8372;DHT22;4223;48.724;8.982;2022-09-16T09:27:26;12.70;99.90
8372;DHT22;4223;48.724;8.982;2022-09-16T09:30:07;12.80;99.90
8372;DHT22;4223;48.724;8.982;2022-09-16T09:32:45;12.70;99.90
8372;DHT22;4223;48.724;8.982;2022-09-16T09:35:26;12.80;99.90
8372;DHT22;4223;48.724;8.982;2022-09-16T09:38:21;12.80;99.90
8372;DHT22;4223;48.724;8.982;2022-09-16T09:40:54;12.80;99.90
8372;DHT22;4223;48.724;8.982;2022-09-16T09:43:30;12.80;99.90
8372;DHT22;4223;48.724;8.982;2022-09-16T09:46:03;12.80;96.40
8372;DHT22;4223;48.724;8.982;2022-09-16T09:48:36;12.80;99.90
8372;DHT22;4223;48.724;8.982;2022-09-16T09:51:12;12.60;98.30
8372;DHT22;4223;48.724;8.982;2022-09-16T09:53:46;12.60;99.90
8372;DHT22;4223;48.724;8.982;2022-09-16T09:56:19;12.70;99.90
8372;DHT22;4223;48.724;8.982;2022-09-16T09:58:56;12.70;99.90
8372;DHT22;4223;48.724;8.982;2022-09-16T10:01:24;12.80;99.90
8372;DHT22;4223;48.724;8.982;2022-09-16T10:03:52;12.80;99.90
8372;DHT22;4223;48.724;8.982;2022-09-16T10:06:25;12.80;99.90
8372;DHT22;4223;48.724;8.982;2022-09-16T10:08:55;12.80;99.90
8372;DHT22;4223;48.724;8.982;2022-09-16T10:11:24;12.80;99.90
8372;DHT22;4223;48.724;8.982;2022-09-16T10:13:54;12.70;99.90
8372;DHT22;4223;48.724;8.982;2022-09-16T10:16:25;12.70;99.10
8372;DHT22;4223;48.724;8.982;2022-09-16T10:18:56;12.70;99.10
8372;DHT22;4223;48.724;8.982;2022-09-16T10:21:24;12.80;99.90
8372;DHT22;4223;48.724;8.982;2022-09-16T10:23:53;12.90;98.90
8372;DHT22;4223;48.724;8.982;2022-09-16T10:26:22;13.00;99.90
8372;DHT22;4223;48.724;8.982;2022-09-16T10:28:56;13.30;99.90
8372;DHT22;4223;48.724;8.982;2022-09-16T10:31:25;13.50;93.70
8372;DHT22;4223;48.724;8.982;2022-09-16T10:33:53;13.50;93.10
8372;DHT22;4223;48.724;8.982;2022-09-16T10:36:22;13.60;79.40
8372;DHT22;4223;48.724;8.982;2022-09-16T10:38:53;13.50;71.70
8372;DHT22;4223;48.724;8.982;2022-09-16T10:41:22;13.60;82.10
8372;DHT22;4223;48.724;8.982;2022-09-16T10:43:52;13.60;89.80
8372;DHT22;4223;48.724;8.982;2022-09-16T10:46:21;13.60;87.20
8372;DHT22;4223;48.724;8.982;2022-09-16T10:48:49;13.60;67.20
8372;DHT22;4223;48.724;8.982;2022-09-16T10:51:22;13.50;79.20
8372;DHT22;4223;48.724;8.982;2022-09-16T10:53:53;13.50;71.50
8372;DHT22;4223;48.724;8.982;2022-09-16T10:56:22;13.40;90.40
8372;DHT22;4223;48.724;8.982;2022-09-16T10:59:01;13.40;93.00
8372;DHT22;4223;48.724;8.982;2022-09-16T11:01:41;13.40;85.80
8372;DHT22;4223;48.724;8.982;2022-09-16T11:04:35;13.30;88.80
8372;DHT22;4223;48.724;8.982;2022-09-16T11:07:12;13.30;58.00
8372;DHT22;4223;48.724;8.982;2022-09-16T11:09:47;13.30;60.00
8372;DHT22;4223;48.724;8.982;2022-09-16T11:12:34;13.30;63.40
8372;DHT22;4223;48.724;8.982;2022-09-16T11:15:11;13.30;65.50
8372;DHT22;4223;48.724;8.982;2022-09-16T11:17:53;13.40;53.10
8372;DHT22;4223;48.724;8.982;2022-09-16T11:23:38;13.30;30.10
8372;DHT22;4223;48.724;8.982;2022-09-16T11:26:14;13.20;17.80
8372;DHT22;4223;48.724;8.982;2022-09-16T11:28:53;12.90;1.00
8372;DHT22;4223;48.724;8.982;2022-09-16T11:31:33;12.90;1.00
8372;DHT22;4223;48.724;8.982;2022-09-16T11:34:08;13.10;7.00
8372;DHT22;4223;48.724;8.982;2022-09-16T11:36:51;13.20;1.00
8372;DHT22;4223;48.724;8.982;2022-09-16T11:39:33;13.30;1.00
8372;DHT22;4223;48.724;8.982;2022-09-16T11:42:09;13.30;9.80
8372;DHT22;4223;48.724;8.982;2022-09-16T11:44:43;13.50;17.50
8372;DHT22;4223;48.724;8.982;2022-09-16T11:47:25;13.50;1.00
8372;DHT22;4223;48.724;8.982;2022-09-16T11:50:12;13.60;1.00
8372;DHT22;4223;48.724;8.982;2022-09-16T11:52:51;13.60;1.00
8372;DHT22;4223;48.724;8.982;2022-09-16T11:55:33;14.00;1.00
8372;DHT22;4223;48.724;8.982;2022-09-16T11:58:09;14.10;1.00
8372;DHT22;4223;48.724;8.982;2022-09-16T12:00:38;14.20;43.70
8372;DHT22;4223;48.724;8.982;2022-09-16T12:03:17;14.10;1.00
8372;DHT22;4223;48.724;8.982;2022-09-16T12:05:52;13.90;1.00
8372;DHT22;4223;48.724;8.982;2022-09-16T12:08:24;13.90;1.00
8372;DHT22;4223;48.724;8.982;2022-09-16T12:10:56;14.00;1.00
8372;DHT22;4223;48.724;8.982;2022-09-16T12:13:26;14.30;1.00
8372;DHT22;4223;48.724;8.982;2022-09-16T12:15:56;14.30;1.00
8372;DHT22;4223;48.724;8.982;2022-09-16T12:18:28;14.50;1.00
8372;DHT22;4223;48.724;8.982;2022-09-16T12:21:04;14.40;99.90
8372;DHT22;4223;48.724;8.982;2022-09-16T12:23:38;14.50;1.00
8372;DHT22;4223;48.724;8.982;2022-09-16T12:26:08;14.50;1.00
8372;DHT22;4223;48.724;8.982;2022-09-16T12:28:42;14.50;99.90
8372;DHT22;4223;48.724;8.982;2022-09-16T12:31:14;14.30;1.00
8372;DHT22;4223;48.724;8.982;2022-09-16T12:33:46;14.30;1.00
8372;DHT22;4223;48.724;8.982;2022-09-16T12:36:19;14.00;1.00
8372;DHT22;4223;48.724;8.982;2022-09-16T12:38:47;13.70;1.00
8372;DHT22;4223;48.724;8.982;2022-09-16T12:44:26;13.80;1.00
8372;DHT22;4223;48.724;8.982;2022-09-16T12:47:09;13.70;1.00
8372;DHT22;4223;48.724;8.982;2022-09-16T12:50:03;13.60;1.00
8372;DHT22;4223;48.724;8.982;2022-09-16T12:52:51;13.70;1.00
8372;DHT22;4223;48.724;8.982;2022-09-16T12:55:40;13.70;1.00
8372;DHT22;4223;48.724;8.982;2022-09-16T12:58:30;14.20;1.00
8372;DHT22;4223;48.724;8.982;2022-09-16T13:01:09;14.50;1.00
8372;DHT22;4223;48.724;8.982;2022-09-16T13:03:41;14.80;99.90
8372;DHT22;4223;48.724;8.982;2022-09-16T13:06:20;15.00;99.90
8372;DHT22;4223;48.724;8.982;2022-09-16T13:08:50;15.20;1.00
8372;DHT22;4223;48.724;8.982;2022-09-16T13:11:19;15.60;1.00
8372;DHT22;4223;48.724;8.982;2022-09-16T13:13:49;16.00;1.00
8372;DHT22;4223;48.724;8.982;2022-09-16T13:16:27;16.30;99.90
8372;DHT22;4223;48.724;8.982;2022-09-16T13:19:21;16.50;99.90
8372;DHT22;4223;48.724;8.982;2022-09-16T13:21:49;16.60;50.00
8372;DHT22;4223;48.724;8.982;2022-09-16T13:24:26;17.00;1.00
8372;DHT22;4223;48.724;8.982;2022-09-16T13:26:54;17.50;19.10
8372;DHT22;4223;48.724;8.982;2022-09-16T13:29:30;17.40;37.20
8372;DHT22;4223;48.724;8.982;2022-09-16T13:32:04;17.90;99.90
8372;DHT22;4223;48.724;8.982;2022-09-16T13:34:30;17.80;1.00
8372;DHT22;4223;48.724;8.982;2022-09-16T13:36:57;17.60;1.00
8372;DHT22;4223;48.724;8.982;2022-09-16T13:39:31;17.00;1.00
8372;DHT22;4223;48.724;8.982;2022-09-16T13:42:09;16.50;1.00
8372;DHT22;4223;48.724;8.982;2022-09-16T13:44:40;16.70;99.90
8372;DHT22;4223;48.724;8.982;2022-09-16T13:47:28;16.80;99.90
8372;DHT22;4223;48.724;8.982;2022-09-16T13:49:59;16.50;99.90
8372;DHT22;4223;48.724;8.982;2022-09-16T13:52:29;16.40;1.00
8372;DHT22;4223;48.724;8.982;2022-09-16T13:54:59;16.20;1.00
8372;DHT22;4223;48.724;8.982;2022-09-16T13:57:35;16.10;29.80
8372;DHT22;4223;48.724;8.982;2022-09-16T14:00:12;15.90;99.90
8372;DHT22;4223;48.724;8.982;2022-09-16T14:03:10;15.90;99.90
8372;DHT22;4223;48.724;8.982;2022-09-16T14:08:46;16.30;1.00
8372;DHT22;4223;48.724;8.982;2022-09-16T14:11:23;16.30;13.00
8372;DHT22;4223;48.724;8.982;2022-09-16T14:13:56;16.70;99.90
8372;DHT22;4223;48.724;8.982;2022-09-16T14:16:25;17.40;1.00
8372;DHT22;4223;48.724;8.982;2022-09-16T14:18:56;17.70;1.00
8372;DHT22;4223;48.724;8.982;2022-09-16T14:21:27;18.10;1.00
8372;DHT22;4223;48.724;8.982;2022-09-16T14:23:53;17.90;1.00
8372;DHT22;4223;48.724;8.982;2022-09-16T14:26:22;17.60;1.00
8372;DHT22;4223;48.724;8.982;2022-09-16T14:28:49;17.70;1.00
8372;DHT22;4223;48.724;8.982;2022-09-16T14:31:29;17.40;1.00
8372;DHT22;4223;48.724;8.982;2022-09-16T14:33:57;16.70;1.00
8372;DHT22;4223;48.724;8.982;2022-09-16T14:36:28;16.20;1.00
8372;DHT22;4223;48.724;8.982;2022-09-16T14:38:57;16.00;73.50
8372;DHT22;4223;48.724;8.982;2022-09-16T14:41:31;15.70;1.00
8372;DHT22;4223;48.724;8.982;2022-09-16T14:44:07;15.70;1.00
8372;DHT22;4223;48.724;8.982;2022-09-16T14:46:40;15.50;1.00
8372;DHT22;4223;48.724;8.982;2022-09-16T14:49:09;15.50;99.90
8372;DHT22;4223;48.724;8.982;2022-09-16T14:51:38;15.80;1.00
8372;DHT22;4223;48.724;8.982;2022-09-16T14:54:16;16.00;99.90
8372;DHT22;4223;48.724;8.982;2022-09-16T14:56:58;15.90;99.90
8372;DHT22;4223;48.724;8.982;2022-09-16T14:59:27;15.70;99.90
8372;DHT22;4223;48.724;8.982;2022-09-16T15:01:58;16.00;99.90
8372;DHT22;4223;48.724;8.982;2022-09-16T15:04:29;16.40;1.00
8372;DHT22;4223;48.724;8.982;2022-09-16T15:06:59;16.60;1.00
8372;DHT22;4223;48.724;8.982;2022-09-16T15:09:37;16.70;1.00
8372;DHT22;4223;48.724;8.982;2022-09-16T15:12:17;16.50;1.00
8372;DHT22;4223;48.724;8.982;2022-09-16T15:14:45;16.20;1.00
8372;DHT22;4223;48.724;8.982;2022-09-16T15:17:15;16.00;1.00
8372;DHT22;4223;48.724;8.982;2022-09-16T15:19:48;15.60;99.90
8372;DHT22;4223;48.724;8.982;2022-09-16T15:22:17;15.40;99.90
8372;DHT22;4223;48.724;8.982;2022-09-16T15:24:46;15.20;99.90
8372;DHT22;4223;48.724;8.982;2022-09-16T15:27:25;15.10;1.00
8372;DHT22;4223;48.724;8.982;2022-09-16T15:29:55;15.10;1.00
8372;DHT22;4223;48.724;8.982;2022-09-16T15:32:25;14.90;99.90
8372;DHT22;4223;48.724;8.982;2022-09-16T15:35:12;14.80;1.00
8372;DHT22;4223;48.724;8.982;2022-09-16T15:37:41;14.80;1.00
8372;DHT22;4223;48.724;8.982;2022-09-16T15:40:17;14.80;99.90
8372;DHT22;4223;48.724;8.982;2022-09-16T15:42:46;14.80;99.90
8372;DHT22;4223;48.724;8.982;2022-09-16T15:45:17;14.70;99.90
8372;DHT22;4223;48.724;8.982;2022-09-16T15:47:52;14.70;1.00
8372;DHT22;4223;48.724;8.982;2022-09-16T15:50:20;14.60;1.00
8372;DHT22;4223;48.724;8.982;2022-09-16T15:52:53;14.50;6.50
8372;DHT22;4223;48.724;8.982;2022-09-16T15:55:28;14.50;58.50
8372;DHT22;4223;48.724;8.982;2022-09-16T15:58:03;14.40;1.00
8372;DHT22;4223;48.724;8.982;2022-09-16T16:01:01;14.40;91.20
8372;DHT22;4223;48.724;8.982;2022-09-16T16:03:31;14.60;1.00
8372;DHT22;4223;48.724;8.982;2022-09-16T16:06:01;14.60;1.00
8372;DHT22;4223;48.724;8.982;2022-09-16T16:08:38;14.60;1.00
8372;DHT22;4223;48.724;8.982;2022-09-16T16:11:07;14.60;1.00
8372;DHT22;4223;48.724;8.982;2022-09-16T16:13:36;14.60;99.90
8372;DHT22;4223;48.724;8.982;2022-09-16T16:16:03;14.40;1.00
8372;DHT22;4223;48.724;8.982;2022-09-16T16:18:31;14.50;1.00
8372;DHT22;4223;48.724;8.982;2022-09-16T16:20:59;14.50;1.00
8372;DHT22;4223;48.724;8.982;2022-09-16T16:23:27;14.40;1.00
8372;DHT22;4223;48.724;8.982;2022-09-16T16:25:54;14.40;1.00
8372;DHT22;4223;48.724;8.982;2022-09-16T16:28:20;14.40;26.60
8372;DHT22;4223;48.724;8.982;2022-09-16T16:30:49;14.40;1.00
8372;DHT22;4223;48.724;8.982;2022-09-16T16:33:16;14.40;93.20
8372;DHT22;4223;48.724;8.982;2022-09-16T16:35:42;14.40;1.00
8372;DHT22;4223;48.724;8.982;2022-09-16T16:38:09;14.40;64.30
8372;DHT22;4223;48.724;8.982;2022-09-16T16:40:36;14.30;1.00
8372;DHT22;4223;48.724;8.982;2022-09-16T16:43:03;14.30;99.90
8372;DHT22;4223;48.724;8.982;2022-09-16T16:45:30;14.20;1.00
8372;DHT22;4223;48.724;8.982;2022-09-16T16:47:58;14.10;99.90